TimePST,TemperatureF,Dew PointF,Humidity,Sea Level PressureIn,VisibilityMPH,Wind Direction,Wind SpeedMPH,Gust SpeedMPH,PrecipitationIn,Events,Conditions,WindDirDegrees,DateUTC
12:56 AM,21.0,14.0,74,30.00,10.0,North,3.5,-,N/A,,Scattered Clouds,10,2013-01-06 08:56:00
1:56 AM,17.1,10.9,77,30.01,10.0,NNW,3.5,-,N/A,,Clear,330,2013-01-06 09:56:00
2:56 AM,15.1,10.9,84,30.01,9.0,NE,3.5,-,N/A,,Clear,40,2013-01-06 10:56:00
3:56 AM,10.9,7.0,84,30.00,9.0,Calm,Calm,-,N/A,,Clear,0,2013-01-06 11:56:00
4:56 AM,10.9,8.1,88,30.00,7.0,West,8.1,-,N/A,,Clear,260,2013-01-06 12:56:00
5:56 AM,16.0,10.9,81,30.00,7.0,SW,3.5,-,N/A,,Overcast,220,2013-01-06 13:56:00
6:56 AM,15.1,12.0,88,30.00,8.0,SE,3.5,-,N/A,,Overcast,140,2013-01-06 14:56:00
7:56 AM,10.9,8.1,88,30.01,6.0,SE,5.8,-,N/A,,Clear,140,2013-01-06 15:56:00
8:56 AM,15.1,10.9,84,30.02,8.0,SSE,3.5,-,N/A,,Partly Cloudy,160,2013-01-06 16:56:00
9:56 AM,24.1,15.1,69,30.03,9.0,South,6.9,-,N/A,,Partly Cloudy,170,2013-01-06 17:56:00
10:56 AM,25.0,15.1,66,30.03,10.0,SE,6.9,-,N/A,,Mostly Cloudy,140,2013-01-06 18:56:00
11:02 AM,24.8,15.8,69,30.13,10.0,SSE,6.9,-,N/A,,Mostly Cloudy,150,2013-01-06 19:02:00
11:56 AM,28.9,18.0,64,30.01,9.0,SSE,4.6,-,N/A,,Mostly Cloudy,160,2013-01-06 19:56:00
12:56 PM,30.0,19.0,64,30.00,9.0,Calm,Calm,-,N/A,,Mostly Cloudy,0,2013-01-06 20:56:00
1:56 PM,34.0,21.0,59,29.99,10.0,SW,4.6,-,N/A,,Mostly Cloudy,230,2013-01-06 21:56:00
2:56 PM,35.1,19.9,54,30.00,10.0,Calm,Calm,-,N/A,,Mostly Cloudy,0,2013-01-06 22:56:00
3:56 PM,30.9,19.0,61,30.00,9.0,SE,5.8,-,N/A,,Mostly Cloudy,140,2013-01-06 23:56:00
4:56 PM,26.1,17.1,69,30.01,9.0,ESE,4.6,-,N/A,,Scattered Clouds,110,2013-01-07 00:56:00
5:56 PM,25.0,17.1,72,30.03,9.0,SE,3.5,-,N/A,,Scattered Clouds,130,2013-01-07 01:56:00
6:56 PM,19.9,14.0,78,30.04,8.0,NNE,3.5,-,N/A,,Clear,20,2013-01-07 02:56:00
7:56 PM,19.9,15.1,81,30.05,8.0,WNW,3.5,-,N/A,,Partly Cloudy,300,2013-01-07 03:56:00
8:56 PM,19.0,14.0,81,30.07,8.0,Calm,Calm,-,N/A,,Clear,0,2013-01-07 04:56:00
9:56 PM,14.0,10.0,84,30.10,7.0,North,6.9,-,N/A,,Clear,10,2013-01-07 05:56:00
10:56 PM,12.0,9.0,88,30.09,7.0,East,3.5,-,N/A,,Clear,100,2013-01-07 06:56:00
11:56 PM,12.0,9.0,88,30.12,7.0,SSW,3.5,-,N/A,,Clear,210,2013-01-07 07:56:00